Flight Track Log - Related Links

Times and Time Zones

All times are in EDT time to prevent confusion due to time zone crossing. See the N7564S flight status page for this flight to view local times or setup timezone preferences in your user account.

Time Position Orientation Groundspeed Altitude Reporting Facility
EDT Latitude Longitude Course Direction KTS MPH feet Rate Location/Type
Sun 10:41:00 AM 35.8073 -79.5749 202° Southwest  Level Estimated
Sun 10:42:00 AM 35.7671 -79.5916 198° South  Level Estimated
Sun 10:43:00 AM 35.7265 -79.6066 197° South  Level FlightAware Approximate
Sun 10:44:00 AM 35.6858 -79.6217 197° South  Level FlightAware Approximate
Sun 10:45:00 AM 35.6452 -79.6367 197° South  Level FlightAware Approximate
Sun 10:46:00 AM 35.6046 -79.6517 197° South  Level FlightAware Approximate
Sun 10:47:00 AM 35.5640 -79.6668 197° South  Level FlightAware Approximate
Sun 10:48:00 AM 35.5233 -79.6818 197° South  Level FlightAware Approximate
Sun 10:49:00 AM 35.4827 -79.6967 197° South  Level FlightAware Approximate
Sun 10:50:00 AM 35.4421 -79.7117 197° South  Level FlightAware Approximate
Sun 10:51:00 AM 35.4015 -79.7267 197° South  Level FlightAware Approximate
Sun 10:52:00 AM 35.3613 -79.7432 198° South  Level Estimated
Sun 10:53:00 AM 35.3210 -79.7596 198° South  Level FlightAware Approximate
Sun 10:54:00 AM 35.2807 -79.7760 198° South  Level FlightAware Approximate
Sun 10:55:00 AM 35.2405 -79.7923 198° South  Level FlightAware Approximate
Sun 10:56:00 AM 35.2002 -79.8087 198° South  Level FlightAware Approximate
Sun 10:57:00 AM 35.1600 -79.8250 198° South  Level FlightAware Approximate
Sun 10:58:00 AM 35.1197 -79.8413 198° South  Level FlightAware Approximate
Sun 10:59:00 AM 35.0794 -79.8576 198° South  Level FlightAware Approximate
Sun 11:00:00 AM 35.0391 -79.8738 198° South  Level FlightAware Approximate
Sun 11:01:00 AM 34.9989 -79.8901 198° South  Level FlightAware Approximate
Sun 11:02:00 AM 34.9586 -79.9063 198° South  Level FlightAware Approximate
Sun 11:03:00 AM 34.9183 -79.9225 198° South  Level FlightAware Approximate
Sun 11:04:00 AM 34.8780 -79.9387 198° South  Level FlightAware Approximate
Sun 11:05:00 AM 34.8378 -79.9551 198° South  Level Estimated
Sun 11:06:00 AM 34.7975 -79.9713 198° South  Level FlightAware Approximate
Sun 11:07:00 AM 34.7572 -79.9874 198° South  Level FlightAware Approximate
Sun 11:08:00 AM 34.7169 -80.0036 198° South  Level FlightAware Approximate
Sun 11:09:00 AM 34.6766 -80.0197 198° South  Level FlightAware Approximate
Sun 11:10:00 AM 34.6363 -80.0358 198° South  Level FlightAware Approximate
Sun 11:11:00 AM 34.5960 -80.0519 198° South  Level FlightAware Approximate
Sun 11:12:00 AM 34.5557 -80.0680 198° South  Level FlightAware Approximate
Sun 11:13:00 AM 34.5154 -80.0840 198° South  Level FlightAware Approximate
Sun 11:14:00 AM 34.4751 -80.1001 198° South  Level FlightAware Approximate
Sun 11:15:00 AM 34.4349 -80.1163 198° South  Level Estimated
Sun 11:16:00 AM 34.3946 -80.1325 198° South  Level FlightAware Approximate
Sun 11:17:00 AM 34.3544 -80.1487 198° South  Level FlightAware Approximate
Sun 11:18:00 AM 34.3141 -80.1648 198° South  Level FlightAware Approximate
Sun 11:19:00 AM 34.2738 -80.1810 198° South  Level FlightAware Approximate
Sun 11:20:00 AM 34.2336 -80.1971 198° South  Level FlightAware Approximate
Sun 11:21:00 AM 34.1933 -80.2132 198° South  Level FlightAware Approximate
Sun 11:22:00 AM 34.1530 -80.2293 198° South  Level FlightAware Approximate
Sun 11:23:00 AM 34.1128 -80.2454 198° South  Level FlightAware Approximate
Sun 11:24:00 AM 34.0725 -80.2615 198° South  Level FlightAware Approximate
Sun 11:25:00 AM 34.0322 -80.2776 198° South  Level FlightAware Approximate
Sun 11:26:00 AM 33.9919 -80.2936 198° South  Level FlightAware Approximate
Sun 11:27:00 AM 33.9516 -80.3096 198° South  Level FlightAware Approximate
Sun 11:28:00 AM 33.9114 -80.3256 198° South  Level FlightAware Approximate
Sun 11:29:00 AM 33.8711 -80.3416 198° South  Level FlightAware Approximate
Sun 11:30:00 AM 33.8308 -80.3576 198° South  Level FlightAware Approximate
Sun 11:31:00 AM 33.7905 -80.3736 198° South  Level FlightAware Approximate
Sun 11:32:00 AM 33.7502 -80.3895 198° South  Level FlightAware Approximate
Sun 11:33:00 AM 33.7099 -80.4054 198° South  Level FlightAware Approximate
Sun 11:34:00 AM 33.6696 -80.4214 198° South  Level FlightAware Approximate
Sun 11:35:00 AM 33.6293 -80.4373 198° South  Level FlightAware Approximate
Sun 11:36:00 AM 33.5890 -80.4532 198° South  Level FlightAware Approximate
Sun 11:37:00 AM 33.5487 -80.4690 198° South  Level FlightAware Approximate
Sun 11:38:00 AM 33.5084 -80.4849 198° South  Level FlightAware Approximate
Sun 11:39:00 AM 33.4681 -80.5007 198° South  Level FlightAware Approximate
Sun 11:40:00 AM 33.4278 -80.5166 198° South  Level FlightAware Approximate
Sun 11:41:00 AM 33.3875 -80.5324 198° South  Level FlightAware Approximate
Sun 11:42:00 AM 33.3472 -80.5482 198° South  Level FlightAware Approximate
Sun 11:43:00 AM 33.3069 -80.5641 199° South  Level Estimated
Sun 11:44:00 AM 33.2667 -80.5802 199° South  Level FlightAware Approximate
Sun 11:45:00 AM 33.2265 -80.5963 199° South  Level FlightAware Approximate
Sun 11:46:00 AM 33.1862 -80.6124 199° South  Level FlightAware Approximate
Sun 11:47:00 AM 33.1460 -80.6285 199° South  Level FlightAware Approximate
Sun 11:48:00 AM 33.1058 -80.6446 199° South  Level FlightAware Approximate
Sun 11:49:00 AM 33.0656 -80.6607 199° South  Level FlightAware Approximate
Sun 11:50:00 AM 33.0254 -80.6768 199° South  Level FlightAware Approximate
Sun 11:51:00 AM 32.9851 -80.6928 198° South  Level FlightAware Approximate
Sun 11:52:00 AM 32.9449 -80.7088 198° South  Level FlightAware Approximate
Sun 11:53:00 AM 32.9047 -80.7249 198° South  Level FlightAware Approximate
Sun 11:54:00 AM 32.8643 -80.7405 198° South  Level Estimated
Sun 11:55:00 AM 32.8239 -80.7557 197° South  Level FlightAware Approximate
Sun 11:56:00 AM 32.7834 -80.7708 197° South  Level FlightAware Approximate
Sun 11:57:00 AM 32.7431 -80.7864 198° South  Level Estimated
Sun 11:58:00 AM 32.7026 -80.8015 197° South  Level FlightAware Approximate
Sun 11:59:00 AM 32.6621 -80.8165 197° South  Level FlightAware Approximate
Sun 12:00:00 PM 32.6218 -80.8321 198° South  Level Estimated
Sun 12:01:00 PM 32.5813 -80.8472 197° South  Level FlightAware Approximate
Sun 12:02:00 PM 32.5409 -80.8623 197° South  Level FlightAware Approximate
Sun 12:03:00 PM 32.5004 -80.8774 197° South  Level FlightAware Approximate
Sun 12:04:00 PM 32.4599 -80.8925 197° South  Level FlightAware Approximate
Sun 12:05:00 PM 32.4194 -80.9075 197° South  Level FlightAware Approximate
Sun 12:06:00 PM 32.3790 -80.9226 197° South  Level FlightAware Approximate
Sun 12:07:00 PM 32.3387 -80.9382 197° South  Level Estimated
Sun 12:08:00 PM 32.2981 -80.9530 197° South  Level FlightAware Approximate
Sun 12:09:00 PM 32.2576 -80.9678 197° South  Level FlightAware Approximate
Sun 12:10:00 PM 32.2171 -80.9826 197° South  Level FlightAware Approximate
Sun 12:11:00 PM 32.1771 -80.9975 198° South  Level FlightAware Approximate
Sun 12:12:00 PM 32.1371 -81.0124 198° South  Level FlightAware Approximate
Sun 12:13:00 PM 32.0972 -81.0273 198° South  Level FlightAware Approximate
Sun 12:14:00 PM 32.0572 -81.0422 198° South  Level FlightAware Approximate
Sun 12:15:00 PM 32.0172 -81.0571 198° South  Level FlightAware Approximate
Sun 12:16:00 PM 31.9772 -81.0719 198° South  Level FlightAware Approximate
Sun 12:17:00 PM 31.9373 -81.0868 197° South  Level FlightAware Approximate
Sun 12:18:00 PM 31.8973 -81.1016 197° South  Level FlightAware Approximate
Sun 12:19:00 PM 31.8573 -81.1164 197° South  Level FlightAware Approximate
Sun 12:20:00 PM 31.8173 -81.1312 197° South  Level FlightAware Approximate
Sun 12:21:00 PM 31.7773 -81.1460 197° South  Level FlightAware Approximate
Sun 12:22:00 PM 31.7374 -81.1608 197° South  Level FlightAware Approximate
Sun 12:23:00 PM 31.6974 -81.1756 197° South  Level FlightAware Approximate
Sun 12:24:00 PM 31.6574 -81.1904 197° South  Level FlightAware Approximate
Sun 12:25:00 PM 31.6174 -81.2051 197° South  Level FlightAware Approximate
Sun 12:25:05 PM 31.7036 -81.1589 196° South 151 174 5,100  Level Jacksonville Center
Sun 12:26:00 PM 31.5774 -81.2198 197° South  Level FlightAware Approximate
Sun 12:26:05 PM 31.6728 -81.1789 209° Southwest 151 174 4,700  Level Jacksonville Center
Sun 12:27:00 PM 31.5374 -81.2346 197° South  Level FlightAware Approximate
Sun 12:27:05 PM 31.6314 -81.2064 209° Southwest 156 180 4,000  Level Jacksonville Center
Sun 12:28:00 PM 31.4974 -81.2493 197° South  Level FlightAware Approximate
Sun 12:28:05 PM 31.5942 -81.2364 214° Southwest 163 188 3,200  Level Jacksonville Center
Sun 12:29:00 PM 31.4574 -81.2639 197° South  Level FlightAware Approximate
Sun 12:29:05 PM 31.5569 -81.2639 212° Southwest 163 188 3,000  Level Jacksonville Center
Sun 12:30:00 PM 31.4172 -81.2776 196° South  Level FlightAware Approximate
Sun 12:30:05 PM 31.5236 -81.2792 201° Southwest 153 176 3,100  Level Jacksonville Center
Sun 12:31:05 PM 31.4842 -81.2969 201° Southwest 148 170 3,100 -50 Level Jacksonville Center
Sun 12:32:05 PM 31.4447 -81.3097 195° South 148 170 3,000 -50 Descending Jacksonville Center
Sun 12:33:05 PM 31.4050 -81.3128 184° South 148 170 3,000 50 Level Jacksonville Center
Sun 12:34:05 PM 31.3736 -81.3086 174° South 137 158 3,100 -150 Climbing Jacksonville Center
Sun 12:35:05 PM 31.3339 -81.3019 172° South 142 163 2,700 -350 Descending Jacksonville Center
Sun 12:36:05 PM 31.2900 -81.2906 167° South 142 163 2,400 -300 Descending Jacksonville Center
Sun 12:37:05 PM 31.2589 -81.3031 199° South 136 157 2,100 -200 Descending Jacksonville Center
Sun 12:38:05 PM 31.2425 -81.3300 235° Southwest 122 140 2,000 -100 Descending Jacksonville Center
Sun 12:40:00 PM 31.1701 -81.3733 203° Southwest  Level FlightAware Approximate
Sun 12:47:00 PM 31.1500 -81.3833 203° Southwest  Level FlightAware Approximate
Sun 12:48:00 PM 31.1520 -81.3911 203° Southwest  Level Estimated
Sun 12:49:00 PM 31.1500 -81.3833 203° Southwest  Level FlightAware Approximate
Sun 12:50:00 PM 31.1520 -81.3911 203° Southwest  Level Estimated
Sun 12:51:00 PM 31.1500 -81.3833 203° Southwest  Level FlightAware Approximate
Sun 12:52:00 PM 31.1520 -81.3911 203° Southwest  Level Estimated

Login

Don't have an account? Register now (free) for customized features, flight alerts, and more!